IMT Des Moines Marathon - 2013

Marathon Relay

These are the 2013 results. Use this link for 2014 http://onlineraceresults.com/event/view_event.php?event_id=12583

Summary

Number of finishers:
66
Number of females:
17
Number of males:
5
Average time:
4:09:50

Info

October 20, 2013 in Des Moines, IA

Results By

Marathon Relay - Results

Leaderboard
Charts and Stats
Select division:

displaying: 1 - 40 of 40
number of records per page: [10] [25] [all]

    NO DIVISION TEAM OVERALL DIVPL TIME PACE
9925 COED Red Solo Cups 9 6/37 3:38:35 8:21
9968 COED No Filters 10 7/37 3:39:44 8:24
9927 MALE Shive-Hattery Blue 11 2/5 3:42:48 8:31
9918 COED Mc dc 12 8/37 3:43:52 8:33
9959 COED The Running Dead 13 9/37 3:45:53 8:38
9916 FEMALE Lipsticks Vs. Dipsticks 14 2/17 3:48:20 8:43
9917 CORP Mark's Angels 15 2/7 3:49:46 8:47
9933 COED Team 9000 16 10/37 3:51:12 8:50
9964 FEMALE Sole Sisters 17 3/17 3:51:14 8:50
9962 COED In It 2 Win It 18 11/37 3:51:59 8:52
9941 COED Team Town 19 12/37 3:52:26 8:53
9935 COED Team Mathis 20 13/37 3:53:23 8:55
9942 FEMALE Tem Minnesota 21 4/17 3:53:57 8:56
9928 MALE Shive-Hattery Orange 22 3/5 3:54:05 8:57
9921 COED On A Beerrun 23 14/37 3:57:18 9:04
9944 COED The Running Dead 24 15/37 3:57:31 9:04
9912 MALE Hot Spicy 25 4/5 3:58:25 9:06
9901 CORP A-Maizing Racers 26 3/7 3:59:54 9:10
9960 COED Wheennig Huntball 27 16/37 4:00:22 9:11
9948 CORP - 28 4/7 4:00:24 9:11
9954 FEMALE Norwalk Wonder Women Ii 29 5/17 4:01:59 9:15
9965 FEMALE Team Michele 30 6/17 4:02:18 9:15
9903 FEMALE Chicks With Kicks 31 7/17 4:02:56 9:17
9947 COED Team Turtles 32 17/37 4:04:45 9:21
9932 MALE Team 28.2 33 5/5 4:06:45 9:26
9939 COED Team Shagbit 34 18/37 4:08:13 9:29
9907 COED Epic 35 19/37 4:08:13 9:29
9967 CORP One Dll Runners 36 5/7 4:09:51 9:33
9926 COED Roadrunners 37 20/37 4:09:58 9:33
9909 FEMALE Fierce Five 38 8/17 4:11:32 9:37
9946 COED We Like Big Mutts 39 21/37 4:11:36 9:37
9955 FEMALE Run Like A Mother 40 9/17 4:12:09 9:38
9950 CORP Civilize This 2 41 6/7 4:13:04 9:40
9908 COED Family Stone 42 22/37 4:19:09 9:54
9952 COED Cedar Moines Superheroes 43 23/37 4:19:39 9:55
9957 COED Wtf-L 44 24/37 4:20:33 9:57
9943 COED The Running Cheetahs 45 25/37 4:20:37 9:57
9913 FEMALE Hr Jjems 46 10/17 4:22:52 10:02
9902 FEMALE Above Beyond Cancer 47 11/17 4:23:51 10:05
    NO DIVISION TEAM OVERALL DIVPL TIME PACE
9963 FEMALE Dashing Dynamos 48 12/17 4:25:17 10:08

  • share - click this icon in the results above to share via Facebook, Twitter, email, and more
  • print - click this icon in the results above for a printable page
  • radius - click this icon in the results above to show finishers before and after